Time;durP1;ratioP1;P1;durP2;ratioP2;P2;SDS_P1;SDS_P2;PMS_P1;PMS_P2;Temp;Humidity;BMP_temperature;BMP_pressure;BME280_temperature;BME280_humidity;BME280_pressure;Samples;Min_cycle;Max_cycle;Signal;HPM_P1;HPM_P2
2023/04/18 00:00:43;;;;;;;6.88;5.93;;;9.60;99.90;;;;;;5003241;28;20051;-84
2023/04/18 00:03:14;;;;;;;7.97;6.25;;;9.60;99.90;;;;;;5004235;28;20543;-84
2023/04/18 00:05:46;;;;;;;8.63;7.15;;;9.60;99.90;;;;;;5004257;28;20061;-84
2023/04/18 00:08:13;;;;;;;7.78;6.40;;;9.60;99.90;;;;;;5004504;28;20053;-83
2023/04/18 00:10:41;;;;;;;7.38;6.47;;;9.60;99.90;;;;;;5002543;28;20050;-83
2023/04/18 00:13:08;;;;;;;6.75;5.82;;;9.60;99.90;;;;;;5003323;28;20048;-84
2023/04/18 00:15:35;;;;;;;6.80;6.10;;;9.70;99.90;;;;;;5003877;28;20049;-83
2023/04/18 00:18:04;;;;;;;6.28;5.68;;;9.70;99.90;;;;;;5000471;28;20407;-84
2023/04/18 00:20:31;;;;;;;6.88;5.63;;;9.60;99.90;;;;;;5000245;28;20474;-83
2023/04/18 00:22:59;;;;;;;10.02;6.95;;;9.60;99.90;;;;;;4999797;28;20441;-84
2023/04/18 00:25:26;;;;;;;6.78;5.97;;;9.60;99.90;;;;;;4995249;28;20054;-83
2023/04/18 00:27:53;;;;;;;8.10;6.57;;;9.60;99.90;;;;;;5003829;28;20054;-84
2023/04/18 00:30:20;;;;;;;7.90;6.78;;;9.50;99.90;;;;;;5003587;28;20410;-84
2023/04/18 00:32:47;;;;;;;6.82;5.70;;;9.50;99.90;;;;;;5004673;28;20062;-83
2023/04/18 00:35:14;;;;;;;6.80;5.43;;;9.50;99.90;;;;;;5003564;28;20507;-84
2023/04/18 00:37:41;;;;;;;7.85;5.45;;;9.50;99.90;;;;;;4999720;28;20120;-83
2023/04/18 00:40:08;;;;;;;6.55;5.63;;;9.50;99.90;;;;;;4983565;28;20253;-83
2023/04/18 00:42:35;;;;;;;5.70;5.00;;;9.60;99.90;;;;;;4987438;28;20405;-84
2023/04/18 00:45:02;;;;;;;7.40;5.90;;;9.60;99.90;;;;;;4975512;28;20128;-84
2023/04/18 00:47:29;;;;;;;6.25;5.45;;;9.60;99.90;;;;;;5006960;28;20355;-84
2023/04/18 00:49:57;;;;;;;6.88;5.45;;;9.60;99.90;;;;;;5006988;28;20068;-84
2023/04/18 00:52:25;;;;;;;6.72;5.35;;;9.60;99.90;;;;;;5006189;28;20058;-83
2023/04/18 00:54:53;;;;;;;6.93;5.45;;;9.60;99.90;;;;;;5005859;28;20215;-84
2023/04/18 00:57:21;;;;;;;6.72;5.18;;;9.60;99.90;;;;;;5023042;28;20090;-83
2023/04/18 00:59:48;;;;;;;6.97;5.72;;;9.60;99.90;;;;;;5006414;28;20061;-83
2023/04/18 01:02:16;;;;;;;5.53;4.63;;;9.60;99.90;;;;;;5006088;28;20046;-83
2023/04/18 01:04:43;;;;;;;5.85;4.95;;;9.60;99.90;;;;;;5002270;28;20146;-83
2023/04/18 01:07:10;;;;;;;5.63;4.97;;;9.60;99.90;;;;;;4988492;28;20466;-84
2023/04/18 01:09:37;;;;;;;5.72;4.70;;;9.60;99.90;;;;;;5005780;28;20080;-82
2023/04/18 01:12:04;;;;;;;5.75;4.72;;;9.70;99.90;;;;;;5006253;28;20046;-83
2023/04/18 01:14:31;;;;;;;6.38;5.20;;;9.60;99.90;;;;;;5006067;28;20871;-84
2023/04/18 01:16:58;;;;;;;6.90;5.70;;;9.60;99.90;;;;;;5022650;28;20477;-83
2023/04/18 01:19:25;;;;;;;6.50;5.63;;;9.60;99.90;;;;;;5022207;28;20056;-85
2023/04/18 01:21:53;;;;;;;6.97;6.15;;;9.60;99.90;;;;;;5005758;28;20061;-83
2023/04/18 01:24:23;;;;;;;8.93;7.22;;;9.60;99.90;;;;;;5020790;28;20122;-85
2023/04/18 01:26:50;;;;;;;9.10;6.10;;;9.50;99.90;;;;;;5005620;28;20069;-83
2023/04/18 01:29:17;;;;;;;8.27;6.57;;;9.50;99.90;;;;;;5005227;28;20053;-83
2023/04/18 01:31:44;;;;;;;6.25;5.20;;;9.50;99.90;;;;;;5006668;28;20097;-84
2023/04/18 01:34:12;;;;;;;6.78;5.75;;;9.60;99.90;;;;;;5005520;28;20621;-82
2023/04/18 01:36:39;;;;;;;6.55;5.70;;;9.50;99.90;;;;;;5006026;28;20069;-83
2023/04/18 01:39:06;;;;;;;7.32;5.57;;;9.50;99.90;;;;;;5008042;28;20045;-83
2023/04/18 01:41:33;;;;;;;6.88;5.50;;;9.50;99.90;;;;;;5009661;28;20058;-83
2023/04/18 01:44:00;;;;;;;6.68;5.43;;;9.60;99.90;;;;;;4993271;28;20501;-83
2023/04/18 01:46:27;;;;;;;7.90;5.63;;;9.60;99.90;;;;;;5009451;28;20511;-83
2023/04/18 01:48:55;;;;;;;6.72;5.22;;;9.60;99.90;;;;;;5010757;28;20061;-83
2023/04/18 01:51:22;;;;;;;5.53;4.70;;;9.60;99.90;;;;;;5026732;28;20611;-83
2023/04/18 01:53:48;;;;;;;6.88;5.18;;;9.60;99.90;;;;;;5008830;28;20100;-83
2023/04/18 01:56:15;;;;;;;7.13;5.82;;;9.60;99.90;;;;;;5010442;28;20210;-83
2023/04/18 01:58:42;;;;;;;5.40;4.65;;;9.60;99.90;;;;;;5010661;28;20475;-82
2023/04/18 02:01:09;;;;;;;5.60;4.70;;;9.60;99.90;;;;;;5010703;28;20053;-83
2023/04/18 02:03:36;;;;;;;6.90;5.45;;;9.60;99.90;;;;;;5010636;28;20042;-82
2023/04/18 02:06:04;;;;;;;5.88;5.13;;;9.60;99.90;;;;;;5011228;28;20060;-83
2023/04/18 02:08:34;;;;;;;5.80;4.75;;;9.60;99.90;;;;;;5009582;28;20103;-83
2023/04/18 02:11:01;;;;;;;6.97;5.47;;;9.50;99.90;;;;;;5011011;28;20224;-83
2023/04/18 02:13:28;;;;;;;7.80;6.40;;;9.50;99.90;;;;;;5006800;28;20069;-83
2023/04/18 02:15:55;;;;;;;8.85;7.38;;;9.50;99.90;;;;;;4990296;28;20085;-82
2023/04/18 02:18:23;;;;;;;7.00;5.95;;;9.40;99.90;;;;;;4974917;28;20378;-83
2023/04/18 02:20:51;;;;;;;7.00;5.95;;;9.50;99.90;;;;;;4990997;28;20058;-84
2023/04/18 02:23:18;;;;;;;5.80;5.13;;;9.50;99.90;;;;;;4996085;28;20050;-83
2023/04/18 02:25:44;;;;;;;7.07;5.95;;;9.50;99.90;;;;;;5005850;28;20137;-83
2023/04/18 02:28:11;;;;;;;6.78;5.65;;;9.50;99.90;;;;;;4991023;28;20164;-83
2023/04/18 02:30:38;;;;;;;7.22;5.35;;;9.50;99.90;;;;;;4990386;28;20050;-84
2023/04/18 02:33:05;;;;;;;8.23;5.90;;;9.60;99.90;;;;;;5014605;28;20646;-83
2023/04/18 02:35:32;;;;;;;7.22;6.18;;;9.50;99.90;;;;;;5010183;28;20096;-83
2023/04/18 02:37:59;;;;;;;7.40;5.80;;;9.50;99.90;;;;;;5009981;28;20152;-82
2023/04/18 02:40:26;;;;;;;6.35;5.25;;;9.50;99.90;;;;;;5026090;28;20160;-82
2023/04/18 02:42:53;;;;;;;6.47;5.32;;;9.50;99.90;;;;;;5007011;28;20450;-83
2023/04/18 02:45:20;;;;;;;7.60;6.07;;;9.50;99.90;;;;;;4989908;28;20145;-82
2023/04/18 02:47:47;;;;;;;5.53;4.60;;;9.50;99.90;;;;;;4990608;28;20056;-83
2023/04/18 02:50:22;;;;;;;6.40;4.88;;;9.60;99.90;;;;;;4991852;28;20133;-82
2023/04/18 02:52:49;;;;;;;5.88;5.20;;;9.60;99.90;;;;;;4991873;28;20422;-83
2023/04/18 02:55:17;;;;;;;5.93;4.82;;;9.60;99.90;;;;;;4989122;28;20096;-83
2023/04/18 02:57:43;;;;;;;5.90;4.40;;;9.70;99.90;;;;;;4990614;28;20463;-83
2023/04/18 03:00:12;;;;;;;6.88;4.78;;;9.70;99.90;;;;;;4989729;28;20074;-85
2023/04/18 03:02:39;;;;;;;6.75;5.53;;;9.70;99.90;;;;;;4993812;28;20046;-83
2023/04/18 03:05:07;;;;;;;5.43;4.68;;;9.70;99.90;;;;;;5025911;28;20083;-84
2023/04/18 03:07:34;;;;;;;6.53;4.97;;;9.70;99.90;;;;;;5009486;28;20144;-83
2023/04/18 03:10:01;;;;;;;5.75;4.32;;;9.70;99.90;;;;;;4992348;28;20061;-84
2023/04/18 03:12:28;;;;;;;6.05;4.85;;;9.70;99.90;;;;;;5009874;28;20056;-84
2023/04/18 03:14:54;;;;;;;4.97;4.03;;;9.80;99.90;;;;;;5019669;28;20107;-82
2023/04/18 03:17:21;;;;;;;6.05;4.60;;;9.80;99.90;;;;;;5023723;28;20562;-81
2023/04/18 03:19:48;;;;;;;7.30;6.05;;;9.80;99.90;;;;;;5024691;28;20068;-82
2023/04/18 03:22:15;;;;;;;8.27;6.90;;;9.70;99.90;;;;;;5024435;28;20402;-81
2023/04/18 03:24:42;;;;;;;6.70;5.50;;;9.50;99.90;;;;;;5022803;28;20556;-81
2023/04/18 03:27:10;;;;;;;7.55;6.57;;;9.50;99.90;;;;;;5007606;28;20107;-81
2023/04/18 03:29:37;;;;;;;7.22;5.38;;;9.50;99.90;;;;;;5007721;28;20324;-81
2023/04/18 03:32:04;;;;;;;6.78;5.40;;;9.60;99.90;;;;;;5024081;28;20045;-82
2023/04/18 03:34:31;;;;;;;7.07;6.03;;;9.50;99.90;;;;;;5005323;28;20489;-83
2023/04/18 03:36:58;;;;;;;7.10;5.78;;;9.50;99.90;;;;;;5010800;28;20136;-82
2023/04/18 03:39:25;;;;;;;6.70;5.55;;;9.50;99.90;;;;;;5007014;28;20444;-83
2023/04/18 03:41:52;;;;;;;6.38;4.70;;;9.60;99.90;;;;;;5007720;28;20057;-82
2023/04/18 03:44:19;;;;;;;7.03;5.82;;;9.60;99.90;;;;;;5007720;28;20069;-82
2023/04/18 03:46:46;;;;;;;7.63;6.75;;;9.60;99.90;;;;;;5007328;28;20062;-82
2023/04/18 03:49:13;;;;;;;8.55;6.45;;;9.60;99.90;;;;;;5007551;28;20054;-82
2023/04/18 03:51:46;;;;;;;10.98;8.63;;;9.40;99.90;;;;;;5007737;28;20171;-82
2023/04/18 03:54:14;;;;;;;11.90;8.35;;;9.30;99.90;;;;;;5020332;28;20551;-82
2023/04/18 03:56:41;;;;;;;9.25;6.95;;;9.30;99.90;;;;;;5007348;28;20085;-82
2023/04/18 03:59:09;;;;;;;10.98;7.43;;;9.20;99.90;;;;;;5006135;28;20068;-82
2023/04/18 04:01:36;;;;;;;9.70;7.70;;;9.20;99.90;;;;;;5006946;28;20100;-82
2023/04/18 04:04:03;;;;;;;8.30;6.68;;;9.20;99.90;;;;;;5022127;28;20058;-82
2023/04/18 04:06:30;;;;;;;7.05;6.20;;;9.20;99.90;;;;;;5023407;28;20045;-83
2023/04/18 04:08:57;;;;;;;6.22;5.47;;;9.20;99.90;;;;;;5005560;28;20304;-82
2023/04/18 04:11:25;;;;;;;8.13;6.55;;;9.20;99.90;;;;;;4983726;28;20071;-82
2023/04/18 04:13:52;;;;;;;10.10;8.00;;;9.10;99.90;;;;;;5005585;28;20096;-82
2023/04/18 04:16:19;;;;;;;9.60;8.25;;;9.00;99.90;;;;;;5024389;28;20045;-81
2023/04/18 04:18:46;;;;;;;9.20;7.97;;;8.90;99.90;;;;;;5022868;28;20152;-82
2023/04/18 04:21:13;;;;;;;10.95;8.18;;;8.90;99.90;;;;;;5010037;28;20237;-81
2023/04/18 04:23:41;;;;;;;10.10;8.48;;;8.80;99.90;;;;;;5023953;28;20077;-82
2023/04/18 04:26:08;;;;;;;10.85;9.15;;;8.70;99.90;;;;;;5026953;28;20496;-82
2023/04/18 04:28:35;;;;;;;9.57;7.38;;;8.70;99.90;;;;;;5009216;28;20068;-82
2023/04/18 04:31:05;;;;;;;8.25;6.63;;;8.60;99.90;;;;;;5009689;28;20077;-82
2023/04/18 04:33:32;;;;;;;8.05;6.68;;;8.60;99.90;;;;;;5010798;28;20137;-81
2023/04/18 04:36:00;;;;;;;9.13;6.95;;;8.60;99.90;;;;;;5009863;28;20056;-82
2023/04/18 04:38:29;;;;;;;9.57;7.43;;;8.50;99.90;;;;;;5010187;28;20133;-82
2023/04/18 04:40:57;;;;;;;9.32;7.70;;;8.40;99.90;;;;;;5009465;28;20060;-82
2023/04/18 04:43:24;;;;;;;8.60;7.28;;;8.40;99.90;;;;;;5024877;28;20076;-81
2023/04/18 04:45:52;;;;;;;8.57;6.53;;;8.30;99.90;;;;;;5004077;28;20058;-82
2023/04/18 04:48:20;;;;;;;10.02;6.45;;;8.30;99.90;;;;;;5003330;28;20056;-82
2023/04/18 04:50:52;;;;;;;9.23;7.07;;;8.30;99.90;;;;;;5022186;28;20049;-81
2023/04/18 04:53:19;;;;;;;9.50;8.02;;;8.30;99.90;;;;;;5021849;28;20159;-82
2023/04/18 04:55:45;;;;;;;11.25;9.05;;;8.30;99.90;;;;;;4984487;28;20062;-81
2023/04/18 04:58:12;;;;;;;10.57;8.23;;;8.20;99.90;;;;;;5006117;28;20409;-82
2023/04/18 05:00:39;;;;;;;10.60;8.15;;;8.20;99.90;;;;;;5021725;28;20054;-81
2023/04/18 05:03:07;;;;;;;9.02;7.70;;;8.30;99.90;;;;;;5004553;28;20158;-81
2023/04/18 05:05:34;;;;;;;11.85;8.63;;;8.30;99.90;;;;;;5002770;28;20085;-82
2023/04/18 05:08:01;;;;;;;14.57;11.88;;;8.40;99.90;;;;;;4999575;28;20041;-82
2023/04/18 05:10:29;;;;;;;12.15;10.32;;;8.30;99.90;;;;;;5018353;28;20061;-81
2023/04/18 05:12:56;;;;;;;18.27;13.38;;;8.30;99.90;;;;;;5004342;28;20049;-81
2023/04/18 05:15:23;;;;;;;15.10;12.10;;;8.20;99.90;;;;;;5003939;28;20488;-82
2023/04/18 05:17:50;;;;;;;15.98;13.80;;;8.10;99.90;;;;;;5005128;28;20049;-82
2023/04/18 05:20:18;;;;;;;14.93;12.32;;;8.10;99.90;;;;;;5002064;28;20117;-81
2023/04/18 05:22:44;;;;;;;15.52;11.65;;;8.20;99.90;;;;;;5024511;28;20050;-81
2023/04/18 05:25:11;;;;;;;13.02;11.15;;;8.20;99.90;;;;;;5006667;28;20597;-82
2023/04/18 05:27:38;;;;;;;13.50;11.65;;;8.20;99.90;;;;;;5020412;28;20542;-81
2023/04/18 05:30:06;;;;;;;13.18;11.25;;;8.20;99.90;;;;;;5019976;28;20045;-82
2023/04/18 05:32:33;;;;;;;13.60;11.13;;;8.20;99.90;;;;;;5003589;28;20509;-82
2023/04/18 05:35:00;;;;;;;16.02;13.65;;;8.20;99.90;;;;;;5023022;28;20056;-80
2023/04/18 05:37:27;;;;;;;14.32;11.23;;;8.10;99.90;;;;;;5007577;28;20127;-81
2023/04/18 05:39:54;;;;;;;12.98;11.07;;;8.10;99.90;;;;;;5008875;28;20313;-81
2023/04/18 05:42:21;;;;;;;12.50;10.75;;;8.10;99.90;;;;;;5020308;28;20119;-82
2023/04/18 05:44:49;;;;;;;11.27;9.57;;;8.10;99.90;;;;;;5037463;28;20477;-81
2023/04/18 05:47:16;;;;;;;11.48;9.20;;;8.20;99.90;;;;;;5022996;28;20057;-81
2023/04/18 05:49:43;;;;;;;13.25;10.65;;;8.20;99.90;;;;;;5005721;28;20462;-82
2023/04/18 05:52:10;;;;;;;15.50;12.50;;;8.20;99.90;;;;;;5001717;28;21559;-82
2023/04/18 05:54:37;;;;;;;13.60;11.73;;;8.10;99.90;;;;;;4996327;28;20096;-81
2023/04/18 05:57:05;;;;;;;15.57;11.88;;;8.20;99.90;;;;;;5000829;28;20138;-80
2023/04/18 05:59:31;;;;;;;13.57;11.35;;;8.20;99.90;;;;;;5017502;28;20190;-81
2023/04/18 06:01:58;;;;;;;11.50;9.85;;;8.30;99.90;;;;;;5016008;28;20153;-80
2023/04/18 06:04:25;;;;;;;14.85;11.93;;;8.40;99.90;;;;;;5001333;28;20169;-80
2023/04/18 06:06:53;;;;;;;14.30;10.63;;;8.40;99.90;;;;;;5001083;28;20586;-81
2023/04/18 06:09:19;;;;;;;13.00;10.05;;;8.40;99.90;;;;;;4983586;28;20049;-81
2023/04/18 06:11:46;;;;;;;14.52;11.23;;;8.50;99.90;;;;;;5012254;28;20057;-81
2023/04/18 06:14:13;;;;;;;16.42;11.63;;;8.50;99.90;;;;;;5019685;28;20046;-81
2023/04/18 06:16:40;;;;;;;13.38;10.85;;;8.50;99.90;;;;;;5007643;28;20536;-81
2023/04/18 06:19:07;;;;;;;15.20;12.52;;;8.50;99.90;;;;;;5005396;28;20074;-81
2023/04/18 06:21:34;;;;;;;15.80;11.82;;;8.50;99.90;;;;;;5000437;28;20079;-80
2023/04/18 06:24:01;;;;;;;14.40;10.77;;;8.50;99.90;;;;;;5015721;28;20082;-80
2023/04/18 06:26:30;;;;;;;16.58;12.45;;;8.50;99.90;;;;;;5018431;28;20049;-80
2023/04/18 06:28:57;;;;;;;16.77;13.13;;;8.50;99.90;;;;;;4996470;28;20049;-81
2023/04/18 06:31:24;;;;;;;14.82;11.57;;;8.50;99.90;;;;;;5019071;28;20170;-80
2023/04/18 06:33:51;;;;;;;14.68;11.43;;;8.50;99.90;;;;;;5019568;28;20637;-80
2023/04/18 06:36:18;;;;;;;14.55;11.50;;;8.60;99.90;;;;;;5006667;28;20088;-79
2023/04/18 06:38:45;;;;;;;13.90;10.07;;;8.60;99.90;;;;;;5013976;28;20090;-80
2023/04/18 06:41:13;;;;;;;13.98;10.70;;;8.60;99.90;;;;;;5020287;28;20540;-80
2023/04/18 06:43:40;;;;;;;14.02;10.50;;;8.60;99.90;;;;;;5005031;28;20519;-79
2023/04/18 06:46:27;;;;;;;12.13;9.82;;;8.70;99.90;;;;;;5020067;28;20142;-80
2023/04/18 06:48:54;;;;;;;10.82;9.18;;;8.70;99.90;;;;;;5021160;28;20042;-80
2023/04/18 06:51:21;;;;;;;13.38;11.18;;;8.80;99.90;;;;;;5019608;28;20159;-80
2023/04/18 06:53:51;;;;;;;10.68;8.65;;;8.90;99.90;;;;;;5003317;28;20279;-81
2023/04/18 06:56:19;;;;;;;18.02;13.02;;;9.00;99.90;;;;;;5016193;28;20072;-80
2023/04/18 06:58:46;;;;;;;13.93;11.55;;;8.90;99.90;;;;;;5015054;28;20072;-80
2023/04/18 07:01:13;;;;;;;15.48;13.68;;;8.90;99.90;;;;;;5016342;28;20158;-80
2023/04/18 07:03:40;;;;;;;14.48;10.95;;;8.90;99.90;;;;;;5015907;28;20625;-80
2023/04/18 07:06:09;;;;;;;11.48;9.45;;;9.10;99.90;;;;;;4978206;28;20050;-80
2023/04/18 07:08:36;;;;;;;13.70;11.32;;;9.20;99.90;;;;;;5008126;28;20127;-80
2023/04/18 07:11:04;;;;;;;12.57;10.57;;;9.20;99.90;;;;;;5021014;28;20041;-80
2023/04/18 07:13:32;;;;;;;13.65;11.93;;;9.30;99.90;;;;;;5020984;28;20512;-81
2023/04/18 07:15:59;;;;;;;13.25;11.25;;;9.20;99.90;;;;;;5020678;28;20135;-81
2023/04/18 07:18:27;;;;;;;9.77;8.77;;;9.30;99.90;;;;;;5021891;28;20054;-80
2023/04/18 07:21:06;;;;;;;14.38;11.05;;;9.50;99.90;;;;;;5003422;28;20050;-81
2023/04/18 07:23:33;;;;;;;15.80;12.75;;;9.50;99.90;;;;;;5017448;28;20369;-80
2023/04/18 07:26:01;;;;;;;15.07;12.80;;;9.50;99.90;;;;;;5019869;28;20091;-81
2023/04/18 07:28:30;;;;;;;13.85;11.18;;;9.50;99.90;;;;;;5021336;28;20056;-81
2023/04/18 07:30:57;;;;;;;16.15;13.60;;;9.60;99.90;;;;;;5004076;28;20050;-81
2023/04/18 07:33:24;;;;;;;14.10;11.10;;;9.60;99.90;;;;;;5020737;28;20045;-81
2023/04/18 07:35:51;;;;;;;11.38;10.13;;;9.70;99.90;;;;;;5005689;28;20119;-80
2023/04/18 07:38:20;;;;;;;11.95;10.48;;;9.70;99.90;;;;;;5003931;28;20049;-81
2023/04/18 07:40:57;;;;;;;13.13;11.57;;;9.70;99.90;;;;;;5003871;28;20131;-80
2023/04/18 07:43:25;;;;;;;13.65;10.75;;;9.70;99.90;;;;;;5022600;28;20508;-81
2023/04/18 07:45:52;;;;;;;16.13;12.02;;;9.80;99.90;;;;;;5004493;28;20077;-81
2023/04/18 07:48:21;;;;;;;15.85;12.55;;;9.70;99.90;;;;;;5022445;28;20550;-81
2023/04/18 07:50:48;;;;;;;14.73;13.13;;;9.80;99.90;;;;;;5020399;28;20115;-81
2023/04/18 07:53:15;;;;;;;13.70;11.18;;;9.90;99.90;;;;;;5006444;28;20061;-79
2023/04/18 07:55:42;;;;;;;14.07;10.45;;;10.10;99.90;;;;;;5020769;28;20049;-82
2023/04/18 07:58:09;;;;;;;15.07;11.57;;;10.20;99.90;;;;;;5011911;28;20053;-82
2023/04/18 08:00:38;;;;;;;11.95;10.18;;;10.20;99.90;;;;;;4996406;28;20590;-82
2023/04/18 08:03:09;;;;;;;18.20;12.30;;;10.30;99.90;;;;;;4986141;28;20507;-83
2023/04/18 08:05:42;;;;;;;13.57;10.73;;;10.30;99.90;;;;;;5015661;28;20045;-82
2023/04/18 08:08:10;;;;;;;13.80;10.95;;;10.40;99.90;;;;;;5017969;28;20104;-82
2023/04/18 08:10:37;;;;;;;11.65;10.00;;;10.50;99.90;;;;;;5004674;28;20050;-82
2023/04/18 08:13:05;;;;;;;10.98;9.23;;;10.50;99.90;;;;;;5008314;28;20140;-81
2023/04/18 08:15:32;;;;;;;12.40;10.30;;;10.60;99.90;;;;;;5024276;28;20049;-81
2023/04/18 08:17:59;;;;;;;10.32;9.10;;;10.70;99.90;;;;;;5005995;28;20072;-80
2023/04/18 08:20:26;;;;;;;10.80;9.05;;;10.70;99.90;;;;;;5025987;28;20076;-79
2023/04/18 08:22:53;;;;;;;13.13;10.25;;;10.80;99.90;;;;;;5024444;28;20126;-79
2023/04/18 08:25:35;;;;;;;13.10;9.88;;;10.80;99.90;;;;;;5022453;28;20053;-79
2023/04/18 08:28:02;;;;;;;10.98;8.80;;;10.90;99.90;;;;;;5020074;28;20053;-79
2023/04/18 08:30:29;;;;;;;12.85;10.10;;;11.00;99.90;;;;;;5022020;28;20061;-79
2023/04/18 08:32:57;;;;;;;20.00;11.25;;;11.10;99.90;;;;;;5024339;28;20109;-80
2023/04/18 08:35:24;;;;;;;12.73;10.18;;;11.00;99.90;;;;;;5005644;28;20655;-79
2023/04/18 08:37:51;;;;;;;12.13;9.10;;;11.10;99.90;;;;;;5023032;28;20137;-79
2023/04/18 08:40:18;;;;;;;9.77;7.72;;;11.20;99.90;;;;;;5023092;28;20046;-79
2023/04/18 08:42:45;;;;;;;9.25;7.30;;;11.40;99.90;;;;;;5026363;28;20520;-79
2023/04/18 08:45:13;;;;;;;8.27;7.43;;;11.50;99.90;;;;;;5021448;28;20053;-79
2023/04/18 08:47:40;;;;;;;13.13;10.13;;;11.60;99.90;;;;;;5005657;28;20534;-79
2023/04/18 08:50:08;;;;;;;12.23;9.48;;;11.60;99.90;;;;;;5023138;28;20041;-79
2023/04/18 08:52:36;;;;;;;9.93;7.55;;;11.40;99.90;;;;;;5008296;28;20151;-79
2023/04/18 08:55:04;;;;;;;9.02;6.68;;;11.40;99.90;;;;;;5023237;28;20049;-79
2023/04/18 08:57:32;;;;;;;10.80;7.93;;;11.40;99.90;;;;;;5026657;28;20155;-79
2023/04/18 09:00:07;;;;;;;10.40;8.55;;;11.40;99.90;;;;;;5007814;28;20049;-79
2023/04/18 09:02:41;;;;;;;10.95;8.07;;;11.60;99.90;;;;;;5020716;28;20060;-79
2023/04/18 09:05:13;;;;;;;12.80;8.65;;;11.70;99.90;;;;;;5005858;28;20653;-79
2023/04/18 09:07:40;;;;;;;10.38;7.47;;;11.80;99.90;;;;;;5023821;28;20167;-79
2023/04/18 09:10:07;;;;;;;9.63;6.97;;;12.10;99.90;;;;;;5006540;28;20100;-79
2023/04/18 09:12:34;;;;;;;11.10;6.88;;;12.40;99.90;;;;;;5022257;28;20088;-79
2023/04/18 09:15:09;;;;;;;7.57;6.07;;;12.50;99.90;;;;;;5003999;28;20041;-79
2023/04/18 09:17:41;;;;;;;9.65;7.97;;;12.50;99.90;;;;;;5024085;28;20049;-79
2023/04/18 09:20:11;;;;;;;7.60;6.25;;;12.40;99.90;;;;;;5023969;28;20053;-79
2023/04/18 09:22:56;;;;;;;11.23;6.60;;;12.30;99.90;;;;;;5023265;28;20042;-79
2023/04/18 09:25:24;;;;;;;9.77;6.43;;;12.10;99.90;;;;;;5021150;28;20053;-79
2023/04/18 09:27:52;;;;;;;7.10;5.72;;;12.00;99.90;;;;;;5022393;28;20080;-79
2023/04/18 09:30:38;;;;;;;8.27;5.93;;;11.90;99.90;;;;;;5024570;28;20123;-79
2023/04/18 09:33:08;;;;;;;7.45;6.03;;;11.70;99.90;;;;;;5023899;28;20099;-79
2023/04/18 09:35:35;;;;;;;7.07;5.30;;;11.60;99.90;;;;;;5023636;28;20231;-79
2023/04/18 09:38:03;;;;;;;7.22;5.10;;;11.50;99.90;;;;;;5023191;28;20045;-78
2023/04/18 09:40:30;;;;;;;7.80;5.40;;;11.50;99.90;;;;;;5023996;28;20430;-79
2023/04/18 09:42:56;;;;;;;7.28;5.55;;;11.50;99.90;;;;;;5024165;28;20518;-79
2023/04/18 09:45:24;;;;;;;6.55;5.22;;;11.50;99.90;;;;;;5022934;28;20136;-79
2023/04/18 09:47:51;;;;;;;6.47;4.30;;;11.50;99.90;;;;;;5024113;28;20060;-78
2023/04/18 09:50:19;;;;;;;7.57;4.97;;;11.50;99.90;;;;;;5023756;28;20061;-79
2023/04/18 09:52:46;;;;;;;6.82;4.28;;;11.50;99.90;;;;;;5024238;28;20053;-80
2023/04/18 09:55:15;;;;;;;6.85;4.53;;;11.50;99.90;;;;;;5006260;28;20107;-79
2023/04/18 09:57:47;;;;;;;9.38;5.13;;;11.50;99.90;;;;;;5024021;28;20045;-80
2023/04/18 10:00:25;;;;;;;6.78;4.60;;;11.40;99.90;;;;;;5024423;28;20072;-79
2023/04/18 10:02:57;;;;;;;6.50;4.72;;;11.30;99.90;;;;;;5020684;28;20508;-79
2023/04/18 10:05:31;;;;;;;5.78;4.70;;;11.30;99.90;;;;;;5023349;28;20053;-79
2023/04/18 10:08:01;;;;;;;7.25;4.85;;;11.30;99.90;;;;;;5004270;28;20050;-79
2023/04/18 10:10:28;;;;;;;7.72;5.40;;;11.50;99.90;;;;;;5020818;28;20048;-79
2023/04/18 10:12:56;;;;;;;6.68;4.63;;;11.60;99.90;;;;;;5006318;28;20049;-79
2023/04/18 10:15:25;;;;;;;8.25;4.88;;;11.70;99.90;;;;;;5021917;28;20053;-79
2023/04/18 10:17:52;;;;;;;7.57;4.82;;;11.70;99.90;;;;;;5007100;28;20501;-79
2023/04/18 10:20:31;;;;;;;6.97;4.30;;;11.60;99.90;;;;;;5024232;28;20515;-79
2023/04/18 10:22:58;;;;;;;6.50;4.50;;;11.60;99.90;;;;;;5023369;28;20416;-79
2023/04/18 10:25:46;;;;;;;6.50;4.50;;;11.50;99.90;;;;;;5020846;28;20081;-79
2023/04/18 10:28:13;;;;;;;4.97;3.95;;;11.50;99.90;;;;;;5001553;28;20796;-80
2023/04/18 10:30:40;;;;;;;7.40;4.78;;;11.60;99.90;;;;;;5022337;28;20057;-80
2023/04/18 10:33:31;;;;;;;5.40;4.20;;;11.70;99.90;;;;;;5023671;28;20148;-80
2023/04/18 10:36:08;;;;;;;6.30;4.05;;;11.80;99.90;;;;;;5024347;28;20136;-79
2023/04/18 10:38:37;;;;;;;5.43;4.25;;;11.70;99.90;;;;;;5023343;28;20456;-78
2023/04/18 10:41:24;;;;;;;4.55;3.25;;;11.70;99.90;;;;;;5023691;28;20366;-79
2023/04/18 10:44:08;;;;;;;3.67;3.13;;;11.70;99.90;;;;;;5023468;28;20053;-79
2023/04/18 10:46:35;;;;;;;5.95;3.30;;;11.70;99.90;;;;;;5021919;28;20049;-79
2023/04/18 10:49:12;;;;;;;3.88;2.70;;;11.70;99.90;;;;;;5006287;28;20049;-80
2023/04/18 10:51:40;;;;;;;4.70;2.60;;;11.90;99.90;;;;;;5020498;28;20758;-80
2023/04/18 10:54:08;;;;;;;4.32;3.15;;;12.00;99.90;;;;;;5018123;28;20111;-80
2023/04/18 10:56:35;;;;;;;5.03;3.38;;;11.90;99.90;;;;;;5037754;28;20460;-79
2023/04/18 10:59:02;;;;;;;4.03;2.75;;;11.70;99.90;;;;;;5022604;28;20049;-80
2023/04/18 11:01:31;;;;;;;4.80;3.25;;;11.50;99.90;;;;;;5023221;28;20088;-78
2023/04/18 11:03:59;;;;;;;5.47;3.28;;;11.40;99.90;;;;;;5022133;28;20451;-81
2023/04/18 11:06:27;;;;;;;5.18;3.67;;;11.30;99.90;;;;;;5038565;28;20103;-80
2023/04/18 11:09:11;;;;;;;4.53;3.42;;;11.20;99.90;;;;;;5021351;28;20050;-81
2023/04/18 11:11:38;;;;;;;3.50;2.17;;;11.30;99.90;;;;;;5022263;28;20095;-81
2023/04/18 11:14:05;;;;;;;4.72;2.88;;;11.40;99.90;;;;;;5022826;28;20152;-80
2023/04/18 11:16:32;;;;;;;6.03;3.30;;;11.40;99.90;;;;;;5021286;28;20631;-80
2023/04/18 11:18:59;;;;;;;4.38;3.03;;;11.40;99.90;;;;;;5023795;28;20274;-79
2023/04/18 11:21:30;;;;;;;5.63;2.90;;;11.30;99.90;;;;;;5022920;28;20084;-79
2023/04/18 11:23:57;;;;;;;4.40;2.97;;;11.30;99.90;;;;;;5018757;28;20092;-79
2023/04/18 11:26:25;;;;;;;4.35;2.95;;;11.50;99.90;;;;;;5018209;28;20543;-79
2023/04/18 11:28:55;;;;;;;4.75;3.03;;;11.90;99.90;;;;;;5003100;28;20053;-80
2023/04/18 11:31:25;;;;;;;6.80;3.92;;;12.40;99.90;;;;;;5021305;28;20115;-80
2023/04/18 11:33:55;;;;;;;5.63;3.70;;;12.50;99.90;;;;;;5022808;28;20099;-80
2023/04/18 11:36:22;;;;;;;5.93;4.57;;;12.30;99.90;;;;;;5021553;28;20258;-80
2023/04/18 11:38:48;;;;;;;5.55;3.92;;;12.10;99.90;;;;;;5021711;28;20136;-79
2023/04/18 11:41:15;;;;;;;7.05;5.35;;;12.10;99.90;;;;;;5019794;28;20057;-79
2023/04/18 11:43:43;;;;;;;7.90;4.15;;;11.90;99.90;;;;;;5001309;28;20059;-80
2023/04/18 11:46:11;;;;;;;5.85;4.20;;;11.80;99.90;;;;;;5018840;28;20507;-79
2023/04/18 11:48:41;;;;;;;7.00;4.78;;;11.80;99.90;;;;;;5022468;28;20080;-79
2023/04/18 11:51:33;;;;;;;6.35;4.55;;;11.70;99.90;;;;;;5023028;28;20140;-80
2023/04/18 11:54:00;;;;;;;7.95;4.63;;;11.60;99.90;;;;;;5020204;28;20052;-79
2023/04/18 11:56:27;;;;;;;5.45;3.90;;;11.60;99.90;;;;;;5022474;28;20058;-80
2023/04/18 11:58:53;;;;;;;6.30;5.07;;;11.70;99.90;;;;;;5020974;28;20049;-79
2023/04/18 12:01:22;;;;;;;8.40;5.10;;;11.70;99.90;;;;;;5036587;28;20049;-80
2023/04/18 12:04:05;;;;;;;6.68;4.72;;;11.70;99.90;;;;;;5017737;28;20442;-79
2023/04/18 12:06:49;;;;;;;7.05;4.43;;;11.70;99.90;;;;;;5018778;28;20050;-79
2023/04/18 12:09:16;;;;;;;5.68;4.38;;;11.60;99.90;;;;;;5004262;28;20088;-79
2023/04/18 12:11:43;;;;;;;8.77;5.90;;;11.40;99.90;;;;;;5021380;28;20165;-79
2023/04/18 12:14:20;;;;;;;10.10;5.40;;;11.20;99.90;;;;;;5004169;28;20049;-79
2023/04/18 12:16:50;;;;;;;6.18;5.00;;;11.20;99.90;;;;;;5022304;28;20057;-79
2023/04/18 12:19:19;;;;;;;6.88;4.82;;;11.10;99.90;;;;;;5002590;28;20046;-84
2023/04/18 12:21:56;;;;;;;7.20;4.65;;;11.20;99.90;;;;;;5023926;28;20514;-80
2023/04/18 12:24:24;;;;;;;7.18;5.45;;;11.20;99.90;;;;;;5016299;28;20123;-79
2023/04/18 12:26:51;;;;;;;8.20;4.43;;;11.10;99.90;;;;;;5015501;28;20154;-80
2023/04/18 12:29:18;;;;;;;6.63;4.50;;;11.20;99.90;;;;;;5005647;28;20116;-80
2023/04/18 12:31:46;;;;;;;6.03;4.22;;;11.30;99.90;;;;;;5019322;28;20231;-80
2023/04/18 12:34:13;;;;;;;6.55;5.15;;;11.40;99.90;;;;;;5013006;28;20049;-79
2023/04/18 12:36:40;;;;;;;6.43;4.07;;;11.60;99.90;;;;;;5018564;28;20045;-80
2023/04/18 12:39:08;;;;;;;5.00;4.32;;;11.70;99.90;;;;;;5020148;28;20315;-80
2023/04/18 12:41:36;;;;;;;7.22;4.28;;;11.90;99.90;;;;;;5024127;28;20248;-81
2023/04/18 12:44:03;;;;;;;6.53;4.65;;;11.80;99.90;;;;;;5021699;28;20049;-80
2023/04/18 12:46:30;;;;;;;6.40;4.15;;;11.80;99.90;;;;;;5021324;28;20081;-80
2023/04/18 12:48:57;;;;;;;6.70;4.57;;;11.60;99.90;;;;;;5036884;28;20538;-80
2023/04/18 12:51:25;;;;;;;6.45;4.40;;;11.30;99.90;;;;;;5020916;28;20045;-80
2023/04/18 12:53:52;;;;;;;4.10;3.42;;;11.20;99.90;;;;;;5027764;28;20068;-83